sensor_id;sensor_type;location;lat;lon;timestamp;P1;durP1;ratioP1;P2;durP2;ratioP2
85935;SDS011;76481;54.346;10.210;2024-03-08T00:00:07;10.98;;;4.72;;
85935;SDS011;76481;54.346;10.210;2024-03-08T00:02:40;11.13;;;4.80;;
85935;SDS011;76481;54.346;10.210;2024-03-08T00:05:09;11.00;;;4.80;;
85935;SDS011;76481;54.346;10.210;2024-03-08T00:07:38;13.02;;;5.68;;
85935;SDS011;76481;54.346;10.210;2024-03-08T00:10:04;12.98;;;4.57;;
85935;SDS011;76481;54.346;10.210;2024-03-08T00:12:31;13.27;;;5.38;;
85935;SDS011;76481;54.346;10.210;2024-03-08T00:14:57;11.75;;;5.13;;
85935;SDS011;76481;54.346;10.210;2024-03-08T00:17:22;13.60;;;5.20;;
85935;SDS011;76481;54.346;10.210;2024-03-08T00:19:48;11.50;;;5.05;;
85935;SDS011;76481;54.346;10.210;2024-03-08T00:22:15;13.90;;;5.85;;
85935;SDS011;76481;54.346;10.210;2024-03-08T00:24:41;11.77;;;5.30;;
85935;SDS011;76481;54.346;10.210;2024-03-08T00:27:07;14.73;;;5.40;;
85935;SDS011;76481;54.346;10.210;2024-03-08T00:29:34;11.90;;;5.38;;
85935;SDS011;76481;54.346;10.210;2024-03-08T00:31:59;13.85;;;5.53;;
85935;SDS011;76481;54.346;10.210;2024-03-08T00:34:26;14.40;;;4.82;;
85935;SDS011;76481;54.346;10.210;2024-03-08T00:36:51;14.25;;;5.60;;
85935;SDS011;76481;54.346;10.210;2024-03-08T00:39:17;14.52;;;5.35;;
85935;SDS011;76481;54.346;10.210;2024-03-08T00:41:45;13.63;;;5.38;;
85935;SDS011;76481;54.346;10.210;2024-03-08T00:44:10;13.30;;;5.30;;
85935;SDS011;76481;54.346;10.210;2024-03-08T00:46:36;13.48;;;6.07;;
85935;SDS011;76481;54.346;10.210;2024-03-08T00:49:01;13.00;;;5.78;;
85935;SDS011;76481;54.346;10.210;2024-03-08T00:51:27;13.88;;;6.03;;
85935;SDS011;76481;54.346;10.210;2024-03-08T00:53:52;15.65;;;5.95;;
85935;SDS011;76481;54.346;10.210;2024-03-08T00:56:18;14.00;;;5.65;;
85935;SDS011;76481;54.346;10.210;2024-03-08T00:58:43;15.38;;;6.00;;
85935;SDS011;76481;54.346;10.210;2024-03-08T01:01:09;17.10;;;5.95;;
85935;SDS011;76481;54.346;10.210;2024-03-08T01:03:35;14.88;;;6.55;;
85935;SDS011;76481;54.346;10.210;2024-03-08T01:06:01;14.18;;;5.97;;
85935;SDS011;76481;54.346;10.210;2024-03-08T01:08:27;13.57;;;5.72;;
85935;SDS011;76481;54.346;10.210;2024-03-08T01:10:53;17.90;;;6.18;;
85935;SDS011;76481;54.346;10.210;2024-03-08T01:13:18;15.38;;;6.22;;
85935;SDS011;76481;54.346;10.210;2024-03-08T01:15:44;15.63;;;5.93;;
85935;SDS011;76481;54.346;10.210;2024-03-08T01:18:11;16.70;;;6.10;;
85935;SDS011;76481;54.346;10.210;2024-03-08T01:20:36;15.82;;;6.63;;
85935;SDS011;76481;54.346;10.210;2024-03-08T01:23:02;14.38;;;6.13;;
85935;SDS011;76481;54.346;10.210;2024-03-08T01:25:28;16.83;;;6.07;;
85935;SDS011;76481;54.346;10.210;2024-03-08T01:27:54;20.45;;;7.32;;
85935;SDS011;76481;54.346;10.210;2024-03-08T01:30:19;20.13;;;6.88;;
85935;SDS011;76481;54.346;10.210;2024-03-08T01:32:45;21.20;;;7.18;;
85935;SDS011;76481;54.346;10.210;2024-03-08T01:35:10;17.95;;;7.60;;
85935;SDS011;76481;54.346;10.210;2024-03-08T01:37:36;18.50;;;6.70;;
85935;SDS011;76481;54.346;10.210;2024-03-08T01:40:02;21.23;;;7.80;;
85935;SDS011;76481;54.346;10.210;2024-03-08T01:42:28;22.13;;;7.30;;
85935;SDS011;76481;54.346;10.210;2024-03-08T01:44:54;18.60;;;7.43;;
85935;SDS011;76481;54.346;10.210;2024-03-08T01:47:21;23.00;;;7.28;;
85935;SDS011;76481;54.346;10.210;2024-03-08T01:49:50;19.42;;;6.85;;
85935;SDS011;76481;54.346;10.210;2024-03-08T01:52:16;24.48;;;8.50;;
85935;SDS011;76481;54.346;10.210;2024-03-08T01:54:45;25.02;;;8.05;;
85935;SDS011;76481;54.346;10.210;2024-03-08T01:57:11;22.55;;;7.80;;
85935;SDS011;76481;54.346;10.210;2024-03-08T01:59:39;18.88;;;7.45;;
85935;SDS011;76481;54.346;10.210;2024-03-08T02:02:05;20.73;;;7.13;;
85935;SDS011;76481;54.346;10.210;2024-03-08T02:04:33;19.85;;;7.85;;
85935;SDS011;76481;54.346;10.210;2024-03-08T02:06:59;24.13;;;8.55;;
85935;SDS011;76481;54.346;10.210;2024-03-08T02:09:25;22.15;;;7.60;;
85935;SDS011;76481;54.346;10.210;2024-03-08T02:11:51;19.75;;;8.05;;
85935;SDS011;76481;54.346;10.210;2024-03-08T02:14:17;20.02;;;8.10;;
85935;SDS011;76481;54.346;10.210;2024-03-08T02:16:44;22.40;;;8.68;;
85935;SDS011;76481;54.346;10.210;2024-03-08T02:19:09;23.42;;;8.30;;
85935;SDS011;76481;54.346;10.210;2024-03-08T02:21:35;24.17;;;8.30;;
85935;SDS011;76481;54.346;10.210;2024-03-08T02:24:01;23.80;;;8.18;;
85935;SDS011;76481;54.346;10.210;2024-03-08T02:26:27;25.77;;;8.88;;
85935;SDS011;76481;54.346;10.210;2024-03-08T02:28:52;30.48;;;10.05;;
85935;SDS011;76481;54.346;10.210;2024-03-08T02:31:18;28.65;;;10.02;;
85935;SDS011;76481;54.346;10.210;2024-03-08T02:33:43;24.83;;;9.32;;
85935;SDS011;76481;54.346;10.210;2024-03-08T02:36:09;25.38;;;9.00;;
85935;SDS011;76481;54.346;10.210;2024-03-08T02:38:34;23.65;;;8.43;;
85935;SDS011;76481;54.346;10.210;2024-03-08T02:41:00;23.98;;;8.80;;
85935;SDS011;76481;54.346;10.210;2024-03-08T02:43:25;25.60;;;9.63;;
85935;SDS011;76481;54.346;10.210;2024-03-08T02:45:51;27.92;;;9.55;;
85935;SDS011;76481;54.346;10.210;2024-03-08T02:48:18;24.70;;;9.70;;
85935;SDS011;76481;54.346;10.210;2024-03-08T02:50:43;24.63;;;9.02;;
85935;SDS011;76481;54.346;10.210;2024-03-08T02:53:09;24.40;;;9.63;;
85935;SDS011;76481;54.346;10.210;2024-03-08T02:55:36;25.73;;;9.68;;
85935;SDS011;76481;54.346;10.210;2024-03-08T03:00:35;28.45;;;10.13;;
85935;SDS011;76481;54.346;10.210;2024-03-08T03:03:01;27.63;;;9.82;;
85935;SDS011;76481;54.346;10.210;2024-03-08T03:05:28;31.23;;;10.80;;
85935;SDS011;76481;54.346;10.210;2024-03-08T03:07:57;27.15;;;11.65;;
85935;SDS011;76481;54.346;10.210;2024-03-08T03:10:23;30.58;;;11.13;;
85935;SDS011;76481;54.346;10.210;2024-03-08T03:12:49;28.65;;;10.82;;
85935;SDS011;76481;54.346;10.210;2024-03-08T03:15:14;37.22;;;12.15;;
85935;SDS011;76481;54.346;10.210;2024-03-08T03:17:45;30.40;;;11.73;;
85935;SDS011;76481;54.346;10.210;2024-03-08T03:20:12;31.50;;;11.85;;
85935;SDS011;76481;54.346;10.210;2024-03-08T03:22:39;36.33;;;12.73;;
85935;SDS011;76481;54.346;10.210;2024-03-08T03:25:06;36.38;;;12.65;;
85935;SDS011;76481;54.346;10.210;2024-03-08T03:27:33;30.45;;;11.73;;
85935;SDS011;76481;54.346;10.210;2024-03-08T03:29:58;32.08;;;12.40;;
85935;SDS011;76481;54.346;10.210;2024-03-08T03:32:44;34.60;;;13.10;;
85935;SDS011;76481;54.346;10.210;2024-03-08T03:35:12;35.92;;;13.95;;
85935;SDS011;76481;54.346;10.210;2024-03-08T03:37:39;32.75;;;13.02;;
85935;SDS011;76481;54.346;10.210;2024-03-08T03:40:08;37.30;;;12.93;;
85935;SDS011;76481;54.346;10.210;2024-03-08T03:42:34;35.60;;;13.38;;
85935;SDS011;76481;54.346;10.210;2024-03-08T03:44:59;33.83;;;13.63;;
85935;SDS011;76481;54.346;10.210;2024-03-08T03:47:25;32.80;;;12.98;;
85935;SDS011;76481;54.346;10.210;2024-03-08T03:49:52;33.10;;;12.68;;
85935;SDS011;76481;54.346;10.210;2024-03-08T03:52:19;34.30;;;13.18;;
85935;SDS011;76481;54.346;10.210;2024-03-08T03:54:44;33.00;;;13.00;;
85935;SDS011;76481;54.346;10.210;2024-03-08T03:57:10;39.10;;;14.75;;
85935;SDS011;76481;54.346;10.210;2024-03-08T03:59:37;36.63;;;14.23;;
85935;SDS011;76481;54.346;10.210;2024-03-08T04:02:03;33.85;;;12.80;;
85935;SDS011;76481;54.346;10.210;2024-03-08T04:04:29;34.58;;;13.43;;
85935;SDS011;76481;54.346;10.210;2024-03-08T04:06:54;35.28;;;13.20;;
85935;SDS011;76481;54.346;10.210;2024-03-08T04:09:20;31.05;;;12.98;;
85935;SDS011;76481;54.346;10.210;2024-03-08T04:11:47;39.08;;;13.32;;
85935;SDS011;76481;54.346;10.210;2024-03-08T04:14:13;34.17;;;13.15;;
85935;SDS011;76481;54.346;10.210;2024-03-08T04:16:39;37.70;;;14.50;;
85935;SDS011;76481;54.346;10.210;2024-03-08T04:19:04;29.55;;;12.77;;
85935;SDS011;76481;54.346;10.210;2024-03-08T04:21:30;30.48;;;11.88;;
85935;SDS011;76481;54.346;10.210;2024-03-08T04:23:55;31.77;;;13.02;;
85935;SDS011;76481;54.346;10.210;2024-03-08T04:26:21;34.75;;;13.57;;
85935;SDS011;76481;54.346;10.210;2024-03-08T04:28:47;30.83;;;12.40;;
85935;SDS011;76481;54.346;10.210;2024-03-08T04:31:12;30.83;;;11.85;;
85935;SDS011;76481;54.346;10.210;2024-03-08T04:33:38;32.65;;;12.77;;
85935;SDS011;76481;54.346;10.210;2024-03-08T04:36:04;34.00;;;13.77;;
85935;SDS011;76481;54.346;10.210;2024-03-08T04:38:30;31.13;;;13.55;;
85935;SDS011;76481;54.346;10.210;2024-03-08T04:40:56;31.15;;;12.32;;
85935;SDS011;76481;54.346;10.210;2024-03-08T04:43:22;33.20;;;13.38;;
85935;SDS011;76481;54.346;10.210;2024-03-08T04:45:51;32.50;;;12.70;;
85935;SDS011;76481;54.346;10.210;2024-03-08T04:48:17;30.80;;;13.52;;
85935;SDS011;76481;54.346;10.210;2024-03-08T04:50:43;32.30;;;12.57;;
85935;SDS011;76481;54.346;10.210;2024-03-08T04:53:10;34.40;;;14.02;;
85935;SDS011;76481;54.346;10.210;2024-03-08T04:55:35;30.17;;;12.18;;
85935;SDS011;76481;54.346;10.210;2024-03-08T04:58:02;30.20;;;12.30;;
85935;SDS011;76481;54.346;10.210;2024-03-08T05:00:29;30.13;;;12.30;;
85935;SDS011;76481;54.346;10.210;2024-03-08T05:02:54;29.65;;;12.00;;
85935;SDS011;76481;54.346;10.210;2024-03-08T05:05:20;26.60;;;11.30;;
85935;SDS011;76481;54.346;10.210;2024-03-08T05:07:45;30.15;;;12.45;;
85935;SDS011;76481;54.346;10.210;2024-03-08T05:10:10;30.13;;;11.32;;
85935;SDS011;76481;54.346;10.210;2024-03-08T05:12:36;25.45;;;11.18;;
85935;SDS011;76481;54.346;10.210;2024-03-08T05:15:04;29.10;;;10.80;;
85935;SDS011;76481;54.346;10.210;2024-03-08T05:17:30;27.20;;;10.90;;
85935;SDS011;76481;54.346;10.210;2024-03-08T05:19:56;28.52;;;10.88;;
85935;SDS011;76481;54.346;10.210;2024-03-08T05:22:21;27.75;;;11.60;;
85935;SDS011;76481;54.346;10.210;2024-03-08T05:24:47;27.60;;;10.75;;
85935;SDS011;76481;54.346;10.210;2024-03-08T05:27:13;26.00;;;10.43;;
85935;SDS011;76481;54.346;10.210;2024-03-08T05:29:38;24.08;;;10.40;;
85935;SDS011;76481;54.346;10.210;2024-03-08T05:32:04;24.63;;;10.65;;
85935;SDS011;76481;54.346;10.210;2024-03-08T05:34:29;25.65;;;10.60;;
85935;SDS011;76481;54.346;10.210;2024-03-08T05:36:55;25.90;;;9.32;;
85935;SDS011;76481;54.346;10.210;2024-03-08T05:39:20;25.45;;;9.60;;
85935;SDS011;76481;54.346;10.210;2024-03-08T05:41:49;29.38;;;10.82;;
85935;SDS011;76481;54.346;10.210;2024-03-08T05:44:15;27.95;;;10.77;;
85935;SDS011;76481;54.346;10.210;2024-03-08T05:46:44;28.80;;;10.60;;
85935;SDS011;76481;54.346;10.210;2024-03-08T05:49:11;22.35;;;10.07;;
85935;SDS011;76481;54.346;10.210;2024-03-08T05:51:37;23.80;;;9.60;;
85935;SDS011;76481;54.346;10.210;2024-03-08T05:54:07;24.02;;;10.30;;
85935;SDS011;76481;54.346;10.210;2024-03-08T05:56:35;25.50;;;10.10;;
85935;SDS011;76481;54.346;10.210;2024-03-08T05:59:01;28.15;;;10.43;;
85935;SDS011;76481;54.346;10.210;2024-03-08T06:01:27;24.02;;;11.02;;
85935;SDS011;76481;54.346;10.210;2024-03-08T06:03:53;28.02;;;12.40;;
85935;SDS011;76481;54.346;10.210;2024-03-08T06:06:21;26.42;;;11.68;;
85935;SDS011;76481;54.346;10.210;2024-03-08T06:08:47;30.33;;;12.05;;
85935;SDS011;76481;54.346;10.210;2024-03-08T06:11:14;25.35;;;11.23;;
85935;SDS011;76481;54.346;10.210;2024-03-08T06:13:40;24.27;;;11.35;;
85935;SDS011;76481;54.346;10.210;2024-03-08T06:16:06;25.08;;;10.98;;
85935;SDS011;76481;54.346;10.210;2024-03-08T06:18:36;25.02;;;10.68;;
85935;SDS011;76481;54.346;10.210;2024-03-08T06:21:02;28.70;;;10.90;;
85935;SDS011;76481;54.346;10.210;2024-03-08T06:23:34;26.15;;;10.90;;
85935;SDS011;76481;54.346;10.210;2024-03-08T06:26:03;32.55;;;12.07;;
85935;SDS011;76481;54.346;10.210;2024-03-08T06:28:29;28.83;;;11.27;;
85935;SDS011;76481;54.346;10.210;2024-03-08T06:30:55;26.48;;;10.77;;
85935;SDS011;76481;54.346;10.210;2024-03-08T06:33:21;27.00;;;11.30;;
85935;SDS011;76481;54.346;10.210;2024-03-08T06:35:46;28.45;;;12.10;;
85935;SDS011;76481;54.346;10.210;2024-03-08T06:38:12;25.35;;;11.27;;
85935;SDS011;76481;54.346;10.210;2024-03-08T06:40:37;28.38;;;12.40;;
85935;SDS011;76481;54.346;10.210;2024-03-08T06:43:03;28.20;;;11.70;;
85935;SDS011;76481;54.346;10.210;2024-03-08T06:45:31;28.08;;;11.55;;
85935;SDS011;76481;54.346;10.210;2024-03-08T06:47:59;27.20;;;11.93;;
85935;SDS011;76481;54.346;10.210;2024-03-08T06:50:25;26.95;;;11.88;;
85935;SDS011;76481;54.346;10.210;2024-03-08T06:52:50;27.85;;;11.90;;
85935;SDS011;76481;54.346;10.210;2024-03-08T06:55:19;29.23;;;12.50;;
85935;SDS011;76481;54.346;10.210;2024-03-08T06:57:45;35.17;;;13.02;;
85935;SDS011;76481;54.346;10.210;2024-03-08T07:00:10;29.90;;;12.15;;
85935;SDS011;76481;54.346;10.210;2024-03-08T07:02:40;30.23;;;12.88;;
85935;SDS011;76481;54.346;10.210;2024-03-08T07:05:07;33.33;;;13.23;;
85935;SDS011;76481;54.346;10.210;2024-03-08T07:07:35;29.23;;;12.43;;
85935;SDS011;76481;54.346;10.210;2024-03-08T07:10:01;32.45;;;12.82;;
85935;SDS011;76481;54.346;10.210;2024-03-08T07:12:26;32.55;;;13.82;;
85935;SDS011;76481;54.346;10.210;2024-03-08T07:14:52;30.40;;;13.10;;
85935;SDS011;76481;54.346;10.210;2024-03-08T07:17:18;34.13;;;13.80;;
85935;SDS011;76481;54.346;10.210;2024-03-08T07:19:44;32.42;;;13.57;;
85935;SDS011;76481;54.346;10.210;2024-03-08T07:22:10;31.13;;;13.27;;
85935;SDS011;76481;54.346;10.210;2024-03-08T07:24:36;36.65;;;13.77;;
85935;SDS011;76481;54.346;10.210;2024-03-08T07:27:02;30.83;;;13.43;;
85935;SDS011;76481;54.346;10.210;2024-03-08T07:29:30;31.73;;;14.07;;
85935;SDS011;76481;54.346;10.210;2024-03-08T07:31:55;30.35;;;13.60;;
85935;SDS011;76481;54.346;10.210;2024-03-08T07:34:39;34.00;;;14.50;;
85935;SDS011;76481;54.346;10.210;2024-03-08T07:37:05;33.00;;;13.30;;
85935;SDS011;76481;54.346;10.210;2024-03-08T07:39:36;35.22;;;14.05;;
85935;SDS011;76481;54.346;10.210;2024-03-08T07:42:03;34.60;;;13.85;;
85935;SDS011;76481;54.346;10.210;2024-03-08T07:44:28;33.35;;;13.45;;
85935;SDS011;76481;54.346;10.210;2024-03-08T07:46:54;34.03;;;14.52;;
85935;SDS011;76481;54.346;10.210;2024-03-08T07:49:20;32.65;;;14.40;;
85935;SDS011;76481;54.346;10.210;2024-03-08T07:51:45;36.03;;;15.07;;
85935;SDS011;76481;54.346;10.210;2024-03-08T07:54:11;34.97;;;15.38;;
85935;SDS011;76481;54.346;10.210;2024-03-08T07:56:36;32.13;;;14.45;;
85935;SDS011;76481;54.346;10.210;2024-03-08T07:59:02;35.25;;;13.85;;
85935;SDS011;76481;54.346;10.210;2024-03-08T08:01:29;30.88;;;13.10;;
85935;SDS011;76481;54.346;10.210;2024-03-08T08:03:55;30.38;;;13.15;;
85935;SDS011;76481;54.346;10.210;2024-03-08T08:06:21;28.98;;;13.10;;
85935;SDS011;76481;54.346;10.210;2024-03-08T08:08:47;31.30;;;13.20;;
85935;SDS011;76481;54.346;10.210;2024-03-08T08:11:13;29.27;;;13.07;;
85935;SDS011;76481;54.346;10.210;2024-03-08T08:13:41;29.42;;;12.30;;
85935;SDS011;76481;54.346;10.210;2024-03-08T08:16:08;27.75;;;12.65;;
85935;SDS011;76481;54.346;10.210;2024-03-08T08:18:35;32.53;;;12.98;;
85935;SDS011;76481;54.346;10.210;2024-03-08T08:21:04;27.30;;;12.80;;
85935;SDS011;76481;54.346;10.210;2024-03-08T08:25:57;26.38;;;12.10;;
85935;SDS011;76481;54.346;10.210;2024-03-08T08:28:22;27.27;;;11.82;;
85935;SDS011;76481;54.346;10.210;2024-03-08T08:30:49;27.30;;;12.38;;
85935;SDS011;76481;54.346;10.210;2024-03-08T08:33:15;28.13;;;12.57;;
85935;SDS011;76481;54.346;10.210;2024-03-08T08:35:41;25.58;;;12.23;;
85935;SDS011;76481;54.346;10.210;2024-03-08T08:38:07;27.77;;;11.63;;
85935;SDS011;76481;54.346;10.210;2024-03-08T08:40:34;24.27;;;11.30;;
85935;SDS011;76481;54.346;10.210;2024-03-08T08:43:01;27.08;;;11.77;;
85935;SDS011;76481;54.346;10.210;2024-03-08T08:45:29;30.85;;;12.52;;
85935;SDS011;76481;54.346;10.210;2024-03-08T08:47:55;27.20;;;11.70;;
85935;SDS011;76481;54.346;10.210;2024-03-08T08:50:21;28.10;;;11.63;;
85935;SDS011;76481;54.346;10.210;2024-03-08T08:52:49;24.52;;;11.52;;
85935;SDS011;76481;54.346;10.210;2024-03-08T08:55:15;23.85;;;10.45;;
85935;SDS011;76481;54.346;10.210;2024-03-08T08:57:46;25.60;;;11.30;;
85935;SDS011;76481;54.346;10.210;2024-03-08T09:00:13;30.27;;;11.80;;
85935;SDS011;76481;54.346;10.210;2024-03-08T09:02:41;29.00;;;11.73;;
85935;SDS011;76481;54.346;10.210;2024-03-08T09:05:07;25.83;;;11.25;;
85935;SDS011;76481;54.346;10.210;2024-03-08T09:07:36;26.38;;;11.93;;
85935;SDS011;76481;54.346;10.210;2024-03-08T09:10:02;27.95;;;11.98;;
85935;SDS011;76481;54.346;10.210;2024-03-08T09:12:29;27.48;;;12.27;;
85935;SDS011;76481;54.346;10.210;2024-03-08T09:14:54;26.77;;;11.60;;
85935;SDS011;76481;54.346;10.210;2024-03-08T09:17:20;28.42;;;12.00;;
85935;SDS011;76481;54.346;10.210;2024-03-08T09:19:48;30.10;;;12.82;;
85935;SDS011;76481;54.346;10.210;2024-03-08T09:22:15;28.55;;;12.07;;
85935;SDS011;76481;54.346;10.210;2024-03-08T09:24:40;27.05;;;12.95;;
85935;SDS011;76481;54.346;10.210;2024-03-08T09:27:08;22.45;;;11.40;;
85935;SDS011;76481;54.346;10.210;2024-03-08T09:29:35;25.35;;;11.07;;
85935;SDS011;76481;54.346;10.210;2024-03-08T09:32:01;21.13;;;10.50;;
85935;SDS011;76481;54.346;10.210;2024-03-08T09:34:26;24.40;;;11.02;;
85935;SDS011;76481;54.346;10.210;2024-03-08T09:36:52;22.52;;;11.07;;
85935;SDS011;76481;54.346;10.210;2024-03-08T09:39:18;22.35;;;10.88;;
85935;SDS011;76481;54.346;10.210;2024-03-08T09:41:46;23.00;;;10.85;;
85935;SDS011;76481;54.346;10.210;2024-03-08T09:44:18;23.63;;;11.27;;
85935;SDS011;76481;54.346;10.210;2024-03-08T09:46:47;22.02;;;10.40;;
85935;SDS011;76481;54.346;10.210;2024-03-08T09:49:13;27.65;;;11.73;;
85935;SDS011;76481;54.346;10.210;2024-03-08T09:51:38;23.08;;;11.57;;
85935;SDS011;76481;54.346;10.210;2024-03-08T09:54:07;22.05;;;11.30;;
85935;SDS011;76481;54.346;10.210;2024-03-08T09:56:33;22.27;;;10.88;;
85935;SDS011;76481;54.346;10.210;2024-03-08T09:59:00;23.20;;;11.45;;
85935;SDS011;76481;54.346;10.210;2024-03-08T10:01:44;23.35;;;12.00;;
85935;SDS011;76481;54.346;10.210;2024-03-08T10:04:10;24.23;;;11.65;;
85935;SDS011;76481;54.346;10.210;2024-03-08T10:06:37;23.90;;;11.52;;
85935;SDS011;76481;54.346;10.210;2024-03-08T10:09:02;23.10;;;11.60;;
85935;SDS011;76481;54.346;10.210;2024-03-08T10:11:28;22.85;;;11.23;;
85935;SDS011;76481;54.346;10.210;2024-03-08T10:13:53;23.38;;;11.90;;
85935;SDS011;76481;54.346;10.210;2024-03-08T10:16:19;20.23;;;10.60;;
85935;SDS011;76481;54.346;10.210;2024-03-08T10:18:45;20.10;;;10.73;;
85935;SDS011;76481;54.346;10.210;2024-03-08T10:21:11;19.15;;;10.73;;
85935;SDS011;76481;54.346;10.210;2024-03-08T10:23:39;22.90;;;11.35;;
85935;SDS011;76481;54.346;10.210;2024-03-08T10:26:16;22.08;;;11.60;;
85935;SDS011;76481;54.346;10.210;2024-03-08T10:28:47;20.95;;;11.15;;
85935;SDS011;76481;54.346;10.210;2024-03-08T10:31:14;22.70;;;10.82;;
85935;SDS011;76481;54.346;10.210;2024-03-08T10:33:42;21.58;;;10.95;;
85935;SDS011;76481;54.346;10.210;2024-03-08T10:36:09;19.63;;;10.55;;
85935;SDS011;76481;54.346;10.210;2024-03-08T10:38:40;19.65;;;10.30;;
85935;SDS011;76481;54.346;10.210;2024-03-08T10:41:16;22.33;;;11.70;;
85935;SDS011;76481;54.346;10.210;2024-03-08T10:44:02;20.50;;;10.75;;
85935;SDS011;76481;54.346;10.210;2024-03-08T10:46:50;21.13;;;10.90;;
85935;SDS011;76481;54.346;10.210;2024-03-08T10:49:21;20.50;;;11.07;;
85935;SDS011;76481;54.346;10.210;2024-03-08T10:51:50;22.45;;;10.85;;
85935;SDS011;76481;54.346;10.210;2024-03-08T10:54:18;22.45;;;11.90;;
85935;SDS011;76481;54.346;10.210;2024-03-08T10:56:45;22.13;;;11.20;;
85935;SDS011;76481;54.346;10.210;2024-03-08T10:59:14;20.67;;;10.75;;
85935;SDS011;76481;54.346;10.210;2024-03-08T11:01:40;21.38;;;10.80;;
85935;SDS011;76481;54.346;10.210;2024-03-08T11:04:06;23.98;;;11.35;;
85935;SDS011;76481;54.346;10.210;2024-03-08T11:09:03;20.33;;;10.48;;
85935;SDS011;76481;54.346;10.210;2024-03-08T11:11:39;21.70;;;11.30;;
85935;SDS011;76481;54.346;10.210;2024-03-08T11:14:08;21.38;;;10.82;;
85935;SDS011;76481;54.346;10.210;2024-03-08T11:19:55;21.02;;;10.45;;
85935;SDS011;76481;54.346;10.210;2024-03-08T11:22:31;22.58;;;11.20;;
85935;SDS011;76481;54.346;10.210;2024-03-08T11:24:59;21.55;;;11.25;;
85935;SDS011;76481;54.346;10.210;2024-03-08T11:27:30;22.40;;;11.23;;
85935;SDS011;76481;54.346;10.210;2024-03-08T11:30:14;21.77;;;11.40;;
85935;SDS011;76481;54.346;10.210;2024-03-08T11:32:50;23.63;;;11.40;;
85935;SDS011;76481;54.346;10.210;2024-03-08T11:35:20;24.83;;;11.95;;
85935;SDS011;76481;54.346;10.210;2024-03-08T11:37:48;24.33;;;12.13;;
85935;SDS011;76481;54.346;10.210;2024-03-08T11:40:14;22.27;;;11.82;;
85935;SDS011;76481;54.346;10.210;2024-03-08T11:42:47;23.95;;;11.50;;
85935;SDS011;76481;54.346;10.210;2024-03-08T11:47:41;21.55;;;11.07;;
85935;SDS011;76481;54.346;10.210;2024-03-08T11:50:10;23.35;;;11.55;;
85935;SDS011;76481;54.346;10.210;2024-03-08T11:52:36;20.67;;;10.83;;
85935;SDS011;76481;54.346;10.210;2024-03-08T11:55:02;22.35;;;11.35;;
85935;SDS011;76481;54.346;10.210;2024-03-08T11:57:30;24.00;;;11.40;;
85935;SDS011;76481;54.346;10.210;2024-03-08T11:59:57;23.80;;;11.32;;
85935;SDS011;76481;54.346;10.210;2024-03-08T12:02:24;23.70;;;11.27;;
85935;SDS011;76481;54.346;10.210;2024-03-08T12:04:56;23.15;;;11.52;;
85935;SDS011;76481;54.346;10.210;2024-03-08T12:07:22;21.70;;;11.40;;
85935;SDS011;76481;54.346;10.210;2024-03-08T12:12:47;22.27;;;12.13;;
85935;SDS011;76481;54.346;10.210;2024-03-08T12:15:20;22.52;;;11.40;;
85935;SDS011;76481;54.346;10.210;2024-03-08T12:17:49;23.38;;;12.43;;
85935;SDS011;76481;54.346;10.210;2024-03-08T12:20:20;22.80;;;11.65;;
85935;SDS011;76481;54.346;10.210;2024-03-08T12:22:50;21.08;;;11.77;;
85935;SDS011;76481;54.346;10.210;2024-03-08T12:25:21;22.05;;;11.45;;
85935;SDS011;76481;54.346;10.210;2024-03-08T12:27:48;21.65;;;12.07;;
85935;SDS011;76481;54.346;10.210;2024-03-08T12:30:20;21.30;;;11.15;;
85935;SDS011;76481;54.346;10.210;2024-03-08T12:32:59;25.65;;;12.38;;
85935;SDS011;76481;54.346;10.210;2024-03-08T12:35:29;24.63;;;11.82;;
85935;SDS011;76481;54.346;10.210;2024-03-08T12:37:57;21.42;;;11.00;;
85935;SDS011;76481;54.346;10.210;2024-03-08T12:40:27;22.38;;;11.48;;
85935;SDS011;76481;54.346;10.210;2024-03-08T12:42:57;22.08;;;11.50;;
85935;SDS011;76481;54.346;10.210;2024-03-08T12:45:23;22.20;;;11.18;;
85935;SDS011;76481;54.346;10.210;2024-03-08T12:47:50;21.52;;;11.60;;
85935;SDS011;76481;54.346;10.210;2024-03-08T12:50:16;22.83;;;11.50;;
85935;SDS011;76481;54.346;10.210;2024-03-08T12:52:43;22.25;;;11.52;;
85935;SDS011;76481;54.346;10.210;2024-03-08T12:55:08;21.35;;;11.40;;
85935;SDS011;76481;54.346;10.210;2024-03-08T12:57:34;24.75;;;11.65;;
85935;SDS011;76481;54.346;10.210;2024-03-08T13:00:01;22.90;;;12.05;;
85935;SDS011;76481;54.346;10.210;2024-03-08T13:02:28;21.75;;;11.13;;
85935;SDS011;76481;54.346;10.210;2024-03-08T13:04:55;22.10;;;11.32;;
85935;SDS011;76481;54.346;10.210;2024-03-08T13:07:25;22.60;;;11.00;;
85935;SDS011;76481;54.346;10.210;2024-03-08T13:09:52;21.63;;;11.15;;
85935;SDS011;76481;54.346;10.210;2024-03-08T13:12:19;24.10;;;11.50;;
85935;SDS011;76481;54.346;10.210;2024-03-08T13:14:45;24.83;;;11.80;;
85935;SDS011;76481;54.346;10.210;2024-03-08T13:17:12;25.23;;;11.85;;
85935;SDS011;76481;54.346;10.210;2024-03-08T13:19:38;23.35;;;11.98;;
85935;SDS011;76481;54.346;10.210;2024-03-08T13:22:03;23.05;;;11.95;;
85935;SDS011;76481;54.346;10.210;2024-03-08T13:24:30;27.92;;;12.32;;
85935;SDS011;76481;54.346;10.210;2024-03-08T13:26:55;27.80;;;11.70;;
85935;SDS011;76481;54.346;10.210;2024-03-08T13:29:21;25.83;;;12.30;;
85935;SDS011;76481;54.346;10.210;2024-03-08T13:31:48;24.38;;;12.50;;
85935;SDS011;76481;54.346;10.210;2024-03-08T13:34:17;24.50;;;11.67;;
85935;SDS011;76481;54.346;10.210;2024-03-08T13:36:43;24.95;;;12.13;;
85935;SDS011;76481;54.346;10.210;2024-03-08T13:39:10;28.02;;;13.05;;
85935;SDS011;76481;54.346;10.210;2024-03-08T13:41:43;25.60;;;12.05;;
85935;SDS011;76481;54.346;10.210;2024-03-08T13:46:35;23.92;;;11.20;;
85935;SDS011;76481;54.346;10.210;2024-03-08T13:49:05;23.80;;;11.20;;
85935;SDS011;76481;54.346;10.210;2024-03-08T13:51:33;23.58;;;11.30;;
85935;SDS011;76481;54.346;10.210;2024-03-08T13:53:59;24.20;;;11.82;;
85935;SDS011;76481;54.346;10.210;2024-03-08T13:56:26;26.33;;;11.80;;
85935;SDS011;76481;54.346;10.210;2024-03-08T13:58:52;23.02;;;10.82;;
85935;SDS011;76481;54.346;10.210;2024-03-08T14:01:17;23.90;;;11.27;;
85935;SDS011;76481;54.346;10.210;2024-03-08T14:03:43;27.35;;;12.82;;
85935;SDS011;76481;54.346;10.210;2024-03-08T14:06:09;24.73;;;12.07;;
85935;SDS011;76481;54.346;10.210;2024-03-08T14:08:35;24.13;;;11.88;;
85935;SDS011;76481;54.346;10.210;2024-03-08T14:11:04;24.02;;;10.98;;
85935;SDS011;76481;54.346;10.210;2024-03-08T14:13:43;26.75;;;11.60;;
85935;SDS011;76481;54.346;10.210;2024-03-08T14:16:12;27.75;;;12.15;;
85935;SDS011;76481;54.346;10.210;2024-03-08T14:18:38;25.13;;;11.05;;
85935;SDS011;76481;54.346;10.210;2024-03-08T14:21:04;26.25;;;11.70;;
85935;SDS011;76481;54.346;10.210;2024-03-08T14:23:30;28.80;;;12.10;;
85935;SDS011;76481;54.346;10.210;2024-03-08T14:25:55;25.23;;;11.30;;
85935;SDS011;76481;54.346;10.210;2024-03-08T14:28:21;28.25;;;12.07;;